Gesamt
Gayndah Airport (Gayndah, Queensland) GAH Wetter
|
Gayndah, Queensland (GAH / YGAY)
Klarer Himmel
Windstill |
|
11 °C |
There is no TAF data available at GAH or any nearby airports.
Kürzlicher METAR-Verlauf für GAH
| Date | Time (AEST) | Flight Rules | Wind Dir. | Speed | Type | Height AGL (ft) | Visibility | Temp (°C) | Temp (°F) | Dew Point (°C) | Dew Point (°F) | Rel. Humid. | Pressure | Density Altitude | Remarks |
|---|---|---|---|---|---|---|---|---|---|---|---|---|---|---|---|
| 09-Mai | 07:00 | n/a | 210° | 2 kt | Missing | 11° | 51° | 6° | 42° | 71% | 1021 mb | -341 ft | |||
| 09-Mai | 06:00 | n/a | 240° | 3 kt | Missing | 10° | 50° | 6° | 42° | 76% | 1021 mb | -461 ft | |||
| 09-Mai | 05:00 | n/a | Calm | Missing | 9° | 48° | 5° | 41° | 76% | 1020 mb | -552 ft | ||||
| 09-Mai | 04:00 | n/a | Calm | Missing | 10° | 50° | 4° | 39° | 66% | 1020 mb | -432 ft | ||||
| 09-Mai | 03:00 | n/a | 270° | 3 kt | Missing | 12° | 53° | 3° | 37° | 54% | 1020 mb | -192 ft | |||
| 09-Mai | 02:00 | n/a | 230° | 2 kt | Missing | 12° | 53° | 4° | 39° | 58% | 1020 mb | -192 ft | |||
| 09-Mai | 01:00 | n/a | 230° | 4 kt | Missing | 13° | 55° | 3° | 37° | 51% | 1020 mb | -72 ft | |||
| 09-Mai | 00:00 | n/a | 230° | 3 kt | Missing | 13° | 55° | 2° | 35° | 47% | 1020 mb | -72 ft | |||
| 08-Mai | 23:00 | n/a | 230° | 5 kt | Missing | 13° | 55° | 2° | 35° | 47% | 1020 mb | -72 ft | |||
| 08-Mai | 22:00 | n/a | 230° | 3 kt | Missing | 14° | 57° | 1° | 33° | 41% | 1021 mb | 19 ft | |||
| 08-Mai | 21:00 | n/a | 220° | 3 kt | Missing | 14° | 57° | 0° | 32° | 38% | 1020 mb | 48 ft | |||
| 08-Mai | 20:00 | n/a | 260° | 2 kt | Missing | 14° | 57° | 0° | 32° | 38% | 1020 mb | 48 ft | |||
| 08-Mai | 19:00 | n/a | 220° | 5 kt | Missing | 16° | 60° | 0° | 32° | 34% | 1020 mb | 288 ft | |||
| 08-Mai | 18:00 | n/a | 220° | 3 kt | Missing | 17° | 62° | 0° | 32° | 32% | 1019 mb | 438 ft | |||
| 08-Mai | 17:00 | n/a | 230° | 6 kt | Missing | 19° | 66° | -2° | 28° | 24% | 1018 mb | 707 ft | |||
| 08-Mai | 16:00 | n/a | 230° | 7 kt | Missing | 21° | 69° | -2° | 28° | 21% | 1018 mb | 947 ft | |||
| 08-Mai | 15:00 | n/a | 230° | 6 kt | Missing | 23° | 73° | -2° | 28° | 19% | 1018 mb | 1.187 ft | |||
| 08-Mai | 14:00 | n/a | 230° | 6 kt | Missing | 23° | 73° | -2° | 28° | 19% | 1018 mb | 1.187 ft | |||
| 08-Mai | 13:00 | n/a | 220° | 8 kt | Missing | 22° | 71° | -1° | 30° | 21% | 1019 mb | 1.038 ft | |||
| 08-Mai | 12:00 | n/a | 230° | 8 kt | Missing | 21° | 69° | -1° | 30° | 23% | 1020 mb | 888 ft | |||
| 08-Mai | 11:00 | n/a | 230° | 7 kt | Missing | 19° | 66° | -1° | 30° | 26% | 1021 mb | 619 ft | |||
| 08-Mai | 10:00 | n/a | 210° | 8 kt | Missing | 17° | 62° | -2° | 28° | 27% | 1022 mb | 349 ft | |||
| 08-Mai | 09:00 | n/a | 220° | 8 kt | Missing | 14° | 57° | -1° | 30° | 36% | 1022 mb | -11 ft | |||
| 08-Mai | 08:00 | n/a | 210° | 8 kt | Missing | 13° | 55° | -1° | 30° | 38% | 1022 mb | -131 ft |
Anmelden
| Ihr Browser wird nicht unterstützt. aktualisieren Sie Ihren Browser |
